Time;durP1;ratioP1;P1;durP2;ratioP2;P2;SDS_P1;SDS_P2;PMS_P1;PMS_P2;Temp;Humidity;BMP_temperature;BMP_pressure;BME280_temperature;BME280_humidity;BME280_pressure;Samples;Min_cycle;Max_cycle;Signal;HPM_P1;HPM_P2
2023/04/27 00:00:54;;;;;;;7.07;4.80;;;7.00;93.40;;;;;;2094161;28;20605;-72
2023/04/27 00:01:55;;;;;;;6.18;4.45;;;7.00;93.60;;;;;;2092953;28;20032;-72
2023/04/27 00:02:56;;;;;;;5.25;4.13;;;7.00;93.70;;;;;;2093660;28;20091;-72
2023/04/27 00:03:57;;;;;;;5.75;4.45;;;7.00;93.70;;;;;;2092682;28;20020;-72
2023/04/27 00:04:57;;;;;;;7.75;4.70;;;7.00;93.80;;;;;;2092524;28;20041;-72
2023/04/27 00:05:58;;;;;;;7.15;5.03;;;6.90;93.80;;;;;;2092409;28;20035;-72
2023/04/27 00:06:58;;;;;;;5.88;4.57;;;6.90;93.90;;;;;;2092986;28;20020;-72
2023/04/27 00:07:59;;;;;;;7.20;4.63;;;6.90;93.90;;;;;;2093346;28;20024;-72
2023/04/27 00:09:00;;;;;;;7.18;4.70;;;6.90;94.10;;;;;;2092609;28;20544;-72
2023/04/27 00:10:01;;;;;;;7.05;4.63;;;6.80;94.20;;;;;;2092517;28;20036;-72
2023/04/27 00:11:02;;;;;;;5.82;5.20;;;6.80;94.10;;;;;;2090877;28;20574;-73
2023/04/27 00:12:02;;;;;;;6.82;4.10;;;6.80;94.30;;;;;;2091465;28;20068;-73
2023/04/27 00:13:03;;;;;;;5.50;4.82;;;6.80;94.30;;;;;;2093387;28;20082;-72
2023/04/27 00:14:03;;;;;;;7.95;5.40;;;6.70;94.30;;;;;;2093750;28;20025;-72
2023/04/27 00:15:05;;;;;;;7.53;4.47;;;6.70;94.50;;;;;;2093465;28;20021;-72
2023/04/27 00:16:06;;;;;;;7.57;4.95;;;6.70;94.60;;;;;;2093923;28;20126;-72
2023/04/27 00:17:06;;;;;;;5.40;4.28;;;6.60;94.60;;;;;;2091272;28;20133;-72
2023/04/27 00:18:07;;;;;;;5.93;4.60;;;6.70;94.70;;;;;;2092434;28;20074;-72
2023/04/27 00:19:07;;;;;;;7.53;5.25;;;6.60;94.70;;;;;;2093972;28;20107;-72
2023/04/27 00:20:10;;;;;;;5.07;4.57;;;6.60;94.70;;;;;;2093024;28;20400;-72
2023/04/27 00:21:11;;;;;;;7.40;4.80;;;6.60;94.90;;;;;;2090053;28;20139;-72
2023/04/27 00:22:12;;;;;;;7.60;5.80;;;6.60;94.80;;;;;;2091595;28;20048;-73
2023/04/27 00:23:13;;;;;;;6.13;4.60;;;6.50;95.00;;;;;;2084823;28;20033;-72
2023/04/27 00:24:13;;;;;;;5.57;4.93;;;6.50;95.20;;;;;;2093011;28;20032;-72
2023/04/27 00:25:14;;;;;;;8.40;5.22;;;6.50;95.30;;;;;;2093926;28;20036;-72
2023/04/27 00:26:15;;;;;;;7.28;4.43;;;6.50;95.40;;;;;;2093174;28;20526;-72
2023/04/27 00:27:15;;;;;;;5.65;4.82;;;6.50;95.30;;;;;;2094447;28;20074;-72
2023/04/27 00:28:16;;;;;;;6.15;4.88;;;6.40;95.40;;;;;;2091971;28;20389;-73
2023/04/27 00:29:16;;;;;;;8.60;4.78;;;6.40;95.60;;;;;;2092723;28;20045;-72
2023/04/27 00:30:17;;;;;;;5.82;4.85;;;6.40;95.50;;;;;;2092286;28;20059;-73
2023/04/27 00:31:18;;;;;;;6.20;5.22;;;6.40;95.40;;;;;;2094074;28;20025;-72
2023/04/27 00:32:18;;;;;;;6.70;5.43;;;6.40;95.50;;;;;;2093181;28;20109;-72
2023/04/27 00:33:19;;;;;;;7.63;5.13;;;6.30;95.80;;;;;;2092115;28;20016;-72
2023/04/27 00:34:20;;;;;;;7.80;4.75;;;6.30;96.10;;;;;;2092696;28;20024;-72
2023/04/27 00:35:20;;;;;;;7.15;4.78;;;6.30;96.10;;;;;;2093204;28;20020;-72
2023/04/27 00:36:21;;;;;;;7.15;5.22;;;6.30;96.20;;;;;;2092210;28;20116;-72
2023/04/27 00:37:21;;;;;;;8.77;5.15;;;6.30;96.50;;;;;;2095286;28;20066;-72
2023/04/27 00:38:22;;;;;;;7.93;5.13;;;6.20;96.50;;;;;;2093059;28;20033;-72
2023/04/27 00:39:22;;;;;;;6.05;4.85;;;6.20;96.60;;;;;;2091832;28;20508;-72
2023/04/27 00:40:23;;;;;;;6.90;5.60;;;6.20;96.60;;;;;;2092773;28;20052;-72
2023/04/27 00:41:24;;;;;;;8.43;4.88;;;6.20;96.70;;;;;;2093625;28;20029;-72
2023/04/27 00:42:24;;;;;;;8.23;4.82;;;6.10;96.70;;;;;;2093589;28;20164;-72
2023/04/27 00:43:25;;;;;;;6.22;5.22;;;6.10;96.70;;;;;;2093960;28;20575;-72
2023/04/27 00:44:26;;;;;;;6.43;4.82;;;6.10;96.80;;;;;;2085063;28;20507;-72
2023/04/27 00:45:27;;;;;;;6.95;4.97;;;6.10;96.90;;;;;;2094814;28;20028;-72
2023/04/27 00:46:28;;;;;;;8.85;5.28;;;6.10;97.10;;;;;;2093727;28;20739;-72
2023/04/27 00:47:29;;;;;;;7.30;4.85;;;6.00;97.10;;;;;;2092695;28;20025;-72
2023/04/27 00:48:30;;;;;;;6.43;4.95;;;6.00;97.30;;;;;;2093202;28;20159;-73
2023/04/27 00:49:31;;;;;;;9.68;5.15;;;6.00;97.30;;;;;;2093780;28;20047;-72
2023/04/27 00:50:32;;;;;;;7.35;4.95;;;6.00;97.50;;;;;;2084777;28;20044;-72
2023/04/27 00:51:34;;;;;;;5.75;5.15;;;6.00;97.50;;;;;;2093131;28;20579;-72
2023/04/27 00:52:36;;;;;;;7.00;5.70;;;6.00;97.50;;;;;;2091996;28;20031;-72
2023/04/27 00:53:36;;;;;;;6.05;5.30;;;5.90;97.60;;;;;;2089253;28;20029;-72
2023/04/27 00:54:37;;;;;;;8.80;5.32;;;5.90;97.70;;;;;;2091981;28;20024;-72
2023/04/27 00:55:38;;;;;;;7.68;4.88;;;5.90;97.90;;;;;;2090747;28;20039;-72
2023/04/27 00:56:38;;;;;;;6.95;5.13;;;5.90;98.00;;;;;;2091744;28;20040;-72
2023/04/27 00:57:39;;;;;;;5.82;5.22;;;5.90;98.10;;;;;;2092238;28;20024;-72
2023/04/27 00:58:39;;;;;;;8.73;5.47;;;5.90;98.10;;;;;;2091910;28;20019;-72
2023/04/27 00:59:40;;;;;;;5.90;5.25;;;5.90;98.20;;;;;;2091628;28;20055;-72
2023/04/27 01:00:40;;;;;;;6.38;5.45;;;5.90;98.30;;;;;;2091101;28;20040;-72
2023/04/27 01:01:41;;;;;;;6.35;5.13;;;5.80;98.40;;;;;;2094972;28;20032;-72
2023/04/27 01:02:42;;;;;;;7.38;5.15;;;5.80;98.60;;;;;;2092626;28;20029;-72
2023/04/27 01:03:43;;;;;;;7.10;5.10;;;5.80;98.80;;;;;;2093572;28;20078;-72
2023/04/27 01:04:44;;;;;;;6.72;4.90;;;5.80;98.90;;;;;;2093353;28;20477;-73
2023/04/27 01:05:44;;;;;;;5.40;4.75;;;5.80;98.80;;;;;;2093173;28;20051;-72
2023/04/27 01:06:45;;;;;;;7.53;5.60;;;5.80;98.80;;;;;;2092009;28;20025;-72
2023/04/27 01:07:45;;;;;;;6.45;5.25;;;5.70;98.70;;;;;;2092844;28;20056;-72
2023/04/27 01:08:46;;;;;;;6.78;5.05;;;5.70;99.00;;;;;;2094159;28;20044;-72
2023/04/27 01:09:46;;;;;;;9.20;5.95;;;5.70;99.20;;;;;;2091559;28;20052;-72
2023/04/27 01:10:48;;;;;;;6.45;5.50;;;5.70;99.40;;;;;;2091131;28;20029;-72
2023/04/27 01:11:49;;;;;;;5.35;4.78;;;5.60;99.60;;;;;;2094060;28;20445;-73
2023/04/27 01:12:49;;;;;;;5.70;5.13;;;5.60;99.50;;;;;;2089667;28;20028;-72
2023/04/27 01:13:50;;;;;;;7.22;5.50;;;5.60;99.60;;;;;;2094733;28;20031;-72
2023/04/27 01:14:51;;;;;;;5.75;4.97;;;5.60;99.60;;;;;;2093870;28;20442;-72
2023/04/27 01:15:51;;;;;;;6.63;5.95;;;5.60;99.70;;;;;;2092658;28;20104;-72
2023/04/27 01:16:52;;;;;;;6.47;5.43;;;5.60;99.90;;;;;;2091645;28;20025;-72
2023/04/27 01:18:00;;;;;;;5.75;5.15;;;5.60;99.90;;;;;;2093206;28;20024;-72
2023/04/27 01:19:01;;;;;;;6.75;5.57;;;5.50;99.90;;;;;;2092824;28;20480;-73
2023/04/27 01:20:01;;;;;;;5.90;5.22;;;5.50;99.90;;;;;;2093249;28;20492;-72
2023/04/27 01:21:02;;;;;;;7.93;5.65;;;5.50;99.90;;;;;;2091118;28;20048;-72
2023/04/27 01:22:03;;;;;;;7.07;5.18;;;5.50;99.90;;;;;;2091825;28;20039;-72
2023/04/27 01:23:03;;;;;;;7.55;5.10;;;5.50;99.90;;;;;;2091914;28;20502;-72
2023/04/27 01:24:07;;;;;;;7.22;5.35;;;5.50;99.90;;;;;;2091486;28;20734;-72
2023/04/27 01:25:08;;;;;;;5.95;5.22;;;5.50;99.90;;;;;;2093403;28;20039;-72
2023/04/27 01:26:10;;;;;;;6.78;5.10;;;5.40;99.90;;;;;;2092819;28;20031;-72
2023/04/27 01:27:12;;;;;;;5.57;5.07;;;5.40;99.90;;;;;;2093342;28;20082;-72
2023/04/27 01:28:12;;;;;;;8.98;5.70;;;5.40;99.90;;;;;;2093146;28;20016;-72
2023/04/27 01:29:13;;;;;;;5.50;4.90;;;5.40;99.90;;;;;;2091117;28;20035;-72
2023/04/27 01:30:14;;;;;;;5.88;5.35;;;5.40;99.90;;;;;;2093477;28;20077;-72
2023/04/27 01:31:15;;;;;;;9.13;4.88;;;5.40;99.90;;;;;;2095446;28;20037;-72
2023/04/27 01:32:16;;;;;;;6.05;5.22;;;5.40;99.90;;;;;;2081532;28;20097;-72
2023/04/27 01:33:16;;;;;;;7.80;5.78;;;5.30;99.90;;;;;;2091356;28;20032;-72
2023/04/27 01:34:17;;;;;;;9.05;5.60;;;5.30;99.90;;;;;;2091956;28;20033;-72
2023/04/27 01:35:17;;;;;;;6.70;5.00;;;5.30;99.90;;;;;;2098255;28;20597;-72
2023/04/27 01:36:18;;;;;;;7.65;6.40;;;5.30;99.90;;;;;;2092060;28;20020;-72
2023/04/27 01:37:18;;;;;;;9.35;5.78;;;5.30;99.90;;;;;;2093527;28;20024;-72
2023/04/27 01:38:19;;;;;;;5.95;5.35;;;5.30;99.90;;;;;;2091043;28;20029;-72
2023/04/27 01:39:20;;;;;;;7.75;5.68;;;5.30;99.90;;;;;;2094440;28;20020;-72
2023/04/27 01:40:20;;;;;;;6.45;5.85;;;5.30;99.90;;;;;;2088098;28;20021;-72
2023/04/27 01:41:21;;;;;;;5.97;5.00;;;5.20;99.90;;;;;;2090151;28;20480;-72
2023/04/27 01:42:21;;;;;;;7.82;5.22;;;5.20;99.90;;;;;;2090156;28;20021;-72
2023/04/27 01:43:22;;;;;;;7.20;5.38;;;5.20;99.90;;;;;;2092305;28;20704;-72
2023/04/27 01:44:23;;;;;;;8.18;6.15;;;5.20;99.90;;;;;;2094124;28;20716;-72
2023/04/27 01:45:24;;;;;;;6.15;5.43;;;5.20;99.90;;;;;;2090826;28;20025;-71
2023/04/27 01:46:24;;;;;;;7.70;5.53;;;5.20;99.90;;;;;;2091370;28;20857;-72
2023/04/27 01:47:25;;;;;;;6.47;5.15;;;5.20;99.90;;;;;;2094373;28;20024;-72
2023/04/27 01:48:26;;;;;;;8.02;5.90;;;5.10;99.90;;;;;;2092879;28;20124;-72
2023/04/27 01:49:26;;;;;;;6.05;5.40;;;5.10;99.90;;;;;;2091727;28;20024;-72
2023/04/27 01:50:27;;;;;;;7.13;5.53;;;5.10;99.90;;;;;;2090530;28;20555;-72
2023/04/27 01:51:27;;;;;;;8.65;6.03;;;5.10;99.90;;;;;;2092147;28;20033;-72
2023/04/27 01:52:28;;;;;;;9.00;5.45;;;5.10;99.90;;;;;;2092135;28;20033;-72
2023/04/27 01:53:29;;;;;;;7.70;5.63;;;5.10;99.90;;;;;;2092284;28;20673;-72
2023/04/27 01:54:30;;;;;;;7.15;4.78;;;5.10;99.90;;;;;;2090611;28;20111;-72
2023/04/27 01:55:31;;;;;;;6.28;5.32;;;5.00;99.90;;;;;;2092014;28;21387;-72
2023/04/27 01:56:31;;;;;;;7.68;5.45;;;5.10;99.90;;;;;;2091171;28;20025;-72
2023/04/27 01:57:32;;;;;;;6.45;5.57;;;5.00;99.90;;;;;;2094633;28;20060;-72
2023/04/27 01:58:32;;;;;;;5.60;4.70;;;5.00;99.90;;;;;;2095226;28;20043;-72
2023/04/27 01:59:33;;;;;;;6.03;5.40;;;5.00;99.90;;;;;;2091112;28;20021;-72
2023/04/27 02:00:33;;;;;;;8.15;5.45;;;5.00;99.90;;;;;;2092219;28;20021;-72
2023/04/27 02:01:34;;;;;;;6.45;5.65;;;5.00;99.90;;;;;;2093795;28;20028;-72
2023/04/27 02:02:34;;;;;;;9.13;6.07;;;5.00;99.90;;;;;;2089898;28;20017;-72
2023/04/27 02:03:35;;;;;;;5.78;5.15;;;5.00;99.90;;;;;;2093869;28;20028;-72
2023/04/27 02:04:35;;;;;;;7.55;5.63;;;4.90;99.90;;;;;;2093103;28;20480;-73
2023/04/27 02:05:36;;;;;;;8.70;6.20;;;4.90;99.90;;;;;;2091680;28;20503;-71
2023/04/27 02:06:37;;;;;;;6.53;5.00;;;4.90;99.90;;;;;;2094694;28;20050;-71
2023/04/27 02:07:37;;;;;;;7.35;4.78;;;4.90;99.90;;;;;;2090292;28;20024;-71
2023/04/27 02:08:38;;;;;;;6.88;5.20;;;4.90;99.90;;;;;;2090673;28;20028;-71
2023/04/27 02:09:38;;;;;;;7.25;4.88;;;4.90;99.90;;;;;;2093147;28;20032;-71
2023/04/27 02:10:39;;;;;;;7.30;5.75;;;4.90;99.90;;;;;;2089878;28;20021;-71
2023/04/27 02:11:39;;;;;;;7.65;5.70;;;4.90;99.90;;;;;;2091995;28;20091;-71
2023/04/27 02:12:40;;;;;;;7.32;5.45;;;4.90;99.90;;;;;;2093356;28;20027;-71
2023/04/27 02:13:40;;;;;;;6.70;5.70;;;4.90;99.90;;;;;;2091196;28;20032;-71
2023/04/27 02:14:41;;;;;;;9.15;6.15;;;4.90;99.90;;;;;;2092241;28;20075;-71
2023/04/27 02:15:42;;;;;;;6.15;5.45;;;4.80;99.90;;;;;;2091768;28;20036;-71
2023/04/27 02:16:42;;;;;;;8.90;5.93;;;4.80;99.90;;;;;;2093721;28;20033;-72
2023/04/27 02:17:44;;;;;;;7.28;5.28;;;4.80;99.90;;;;;;2091280;28;20032;-72
2023/04/27 02:18:44;;;;;;;6.78;5.13;;;4.80;99.90;;;;;;2093406;28;20033;-71
2023/04/27 02:19:45;;;;;;;6.00;5.45;;;4.80;99.90;;;;;;2093917;28;20043;-71
2023/04/27 02:20:45;;;;;;;8.63;5.13;;;4.80;99.90;;;;;;2085705;28;20025;-71
2023/04/27 02:21:46;;;;;;;7.75;5.47;;;4.80;99.90;;;;;;2091622;28;20031;-71
2023/04/27 02:22:47;;;;;;;8.73;6.40;;;4.80;99.90;;;;;;2093481;28;20028;-71
2023/04/27 02:23:47;;;;;;;9.20;5.45;;;4.80;99.90;;;;;;2090793;28;20032;-71
2023/04/27 02:24:48;;;;;;;10.18;6.20;;;4.80;99.90;;;;;;2092503;28;20550;-72
2023/04/27 02:25:48;;;;;;;7.13;4.82;;;4.70;99.90;;;;;;2093319;28;20055;-72
2023/04/27 02:26:49;;;;;;;6.43;5.57;;;4.70;99.90;;;;;;2091974;28;20025;-72
2023/04/27 02:27:49;;;;;;;8.88;5.18;;;4.70;99.90;;;;;;2092774;28;20087;-71
2023/04/27 02:28:50;;;;;;;6.22;5.63;;;4.70;99.90;;;;;;2092300;28;20122;-72
2023/04/27 02:29:51;;;;;;;9.35;5.55;;;4.70;99.90;;;;;;2090913;28;20028;-71
2023/04/27 02:30:51;;;;;;;12.80;5.00;;;4.70;99.90;;;;;;2092525;28;20023;-71
2023/04/27 02:31:52;;;;;;;6.90;5.30;;;4.70;99.90;;;;;;2091258;28;20020;-71
2023/04/27 02:32:52;;;;;;;6.80;6.15;;;4.70;99.90;;;;;;2093004;28;20028;-71
2023/04/27 02:33:54;;;;;;;7.07;5.90;;;4.70;99.90;;;;;;2092666;28;20024;-71
2023/04/27 02:34:55;;;;;;;8.32;5.60;;;4.60;99.90;;;;;;2092399;28;20028;-71
2023/04/27 02:35:56;;;;;;;8.13;5.90;;;4.70;99.90;;;;;;2094495;28;20013;-72
2023/04/27 02:36:56;;;;;;;8.55;5.70;;;4.60;99.90;;;;;;2096561;28;20054;-72
2023/04/27 02:37:57;;;;;;;12.40;6.22;;;4.60;99.90;;;;;;2092875;28;20025;-72
2023/04/27 02:38:57;;;;;;;5.55;5.00;;;4.60;99.90;;;;;;2093734;28;20056;-72
2023/04/27 02:39:58;;;;;;;8.32;6.20;;;4.60;99.90;;;;;;2093741;28;20028;-72
2023/04/27 02:40:58;;;;;;;8.98;6.07;;;4.60;99.90;;;;;;2083984;28;20029;-72
2023/04/27 02:42:00;;;;;;;10.07;6.25;;;4.60;99.90;;;;;;2094663;28;20036;-72
2023/04/27 02:43:00;;;;;;;10.20;5.93;;;4.60;99.90;;;;;;2094274;28;20024;-71
2023/04/27 02:44:01;;;;;;;7.57;6.20;;;4.60;99.90;;;;;;2091297;28;20039;-71
2023/04/27 02:45:01;;;;;;;6.32;5.43;;;4.60;99.90;;;;;;2090847;28;21217;-71
2023/04/27 02:46:03;;;;;;;11.43;6.07;;;4.50;99.90;;;;;;2091567;28;20033;-72
2023/04/27 02:47:03;;;;;;;8.65;5.82;;;4.50;99.90;;;;;;2090704;28;20044;-72
2023/04/27 02:48:04;;;;;;;8.43;6.25;;;4.50;99.90;;;;;;2093606;28;20040;-71
2023/04/27 02:49:05;;;;;;;7.68;6.05;;;4.50;99.90;;;;;;2093008;28;20166;-72
2023/04/27 02:50:06;;;;;;;6.47;5.55;;;4.50;99.90;;;;;;2091775;28;20036;-72
2023/04/27 02:51:06;;;;;;;7.18;5.88;;;4.50;99.90;;;;;;2094959;28;20094;-72
2023/04/27 02:52:07;;;;;;;7.40;6.50;;;4.50;99.90;;;;;;2091135;28;20118;-72
2023/04/27 02:53:08;;;;;;;8.07;6.40;;;4.50;99.90;;;;;;2093472;28;20074;-72
2023/04/27 02:54:09;;;;;;;8.88;6.35;;;4.50;99.90;;;;;;2094233;28;20024;-72
2023/04/27 02:55:10;;;;;;;6.82;6.22;;;4.40;99.90;;;;;;2091286;28;20036;-72
2023/04/27 02:56:11;;;;;;;10.38;6.55;;;4.40;99.90;;;;;;2093562;28;20457;-72
2023/04/27 02:57:11;;;;;;;8.05;6.07;;;4.40;99.90;;;;;;2092938;28;20346;-72
2023/04/27 02:58:12;;;;;;;7.25;6.43;;;4.40;99.90;;;;;;2092382;28;20021;-72
2023/04/27 02:59:12;;;;;;;9.70;6.65;;;4.40;99.90;;;;;;2094418;28;20021;-72
2023/04/27 03:00:13;;;;;;;8.02;6.90;;;4.40;99.90;;;;;;2092375;28;20032;-71
2023/04/27 03:01:17;;;;;;;8.95;5.80;;;4.40;99.90;;;;;;2094253;28;20021;-71
2023/04/27 03:02:17;;;;;;;8.18;6.35;;;4.40;99.90;;;;;;2093659;28;20040;-71
2023/04/27 03:03:18;;;;;;;6.95;6.15;;;4.40;99.90;;;;;;2092211;28;20052;-72
2023/04/27 03:04:18;;;;;;;8.77;6.40;;;4.40;99.90;;;;;;2092711;28;20447;-72
2023/04/27 03:05:19;;;;;;;8.25;6.45;;;4.40;99.90;;;;;;2094756;28;20056;-72
2023/04/27 03:06:20;;;;;;;7.65;6.18;;;4.40;99.90;;;;;;2093325;28;21595;-72
2023/04/27 03:07:21;;;;;;;6.70;5.85;;;4.40;99.90;;;;;;2094377;28;20108;-72
2023/04/27 03:08:21;;;;;;;8.52;6.53;;;4.40;99.90;;;;;;2094982;28;20033;-72
2023/04/27 03:09:22;;;;;;;9.80;6.78;;;4.40;99.90;;;;;;2093765;28;20028;-71
2023/04/27 03:10:22;;;;;;;10.32;6.10;;;4.40;99.90;;;;;;2093037;28;20063;-71
2023/04/27 03:11:23;;;;;;;7.55;6.55;;;4.30;99.90;;;;;;2093026;28;20036;-72
2023/04/27 03:12:23;;;;;;;7.22;6.05;;;4.40;99.90;;;;;;2095817;28;20487;-72
2023/04/27 03:13:24;;;;;;;8.38;5.65;;;4.30;99.90;;;;;;2093590;28;20024;-72
2023/04/27 03:14:24;;;;;;;10.95;7.45;;;4.30;99.90;;;;;;2094746;28;20048;-72
2023/04/27 03:15:25;;;;;;;9.32;6.60;;;4.30;99.90;;;;;;2094226;28;20025;-71
2023/04/27 03:16:25;;;;;;;10.20;6.15;;;4.30;99.90;;;;;;2093942;28;20024;-72
2023/04/27 03:17:27;;;;;;;9.45;6.35;;;4.30;99.90;;;;;;2091257;28;20430;-71
2023/04/27 03:18:27;;;;;;;8.10;6.45;;;4.40;99.90;;;;;;2092338;28;20017;-71
2023/04/27 03:19:28;;;;;;;7.32;6.28;;;4.30;99.90;;;;;;2091347;28;20037;-71
2023/04/27 03:20:28;;;;;;;7.10;6.35;;;4.30;99.90;;;;;;2100534;28;20028;-71
2023/04/27 03:21:29;;;;;;;7.43;6.32;;;4.30;99.90;;;;;;2101113;28;20131;-72
2023/04/27 03:22:29;;;;;;;10.02;7.82;;;4.30;99.90;;;;;;2093873;28;20025;-71
2023/04/27 03:23:30;;;;;;;8.73;6.28;;;4.30;99.90;;;;;;2092930;28;20567;-71
2023/04/27 03:24:32;;;;;;;9.25;8.20;;;4.30;99.90;;;;;;2091483;28;20032;-71
2023/04/27 03:25:32;;;;;;;10.00;7.18;;;4.30;99.90;;;;;;2093921;28;20032;-71
2023/04/27 03:26:33;;;;;;;9.20;6.75;;;4.30;99.90;;;;;;2094313;28;20032;-71
2023/04/27 03:27:33;;;;;;;8.70;7.45;;;4.30;99.90;;;;;;2092990;28;20029;-71
2023/04/27 03:28:34;;;;;;;8.00;6.15;;;4.30;99.90;;;;;;2093794;28;20025;-71
2023/04/27 03:29:35;;;;;;;11.77;8.70;;;4.30;99.90;;;;;;2092696;28;20055;-72
2023/04/27 03:30:38;;;;;;;8.70;6.55;;;4.30;99.90;;;;;;2092288;28;20070;-72
2023/04/27 03:31:39;;;;;;;11.07;7.50;;;4.30;99.90;;;;;;2092415;28;20079;-71
2023/04/27 03:32:40;;;;;;;9.75;7.75;;;4.30;99.90;;;;;;2092777;28;20485;-71
2023/04/27 03:33:40;;;;;;;12.93;7.97;;;4.30;99.90;;;;;;2094645;28;20120;-72
2023/04/27 03:34:41;;;;;;;9.30;8.40;;;4.30;99.90;;;;;;2092788;28;20023;-72
2023/04/27 03:35:42;;;;;;;11.18;7.60;;;4.30;99.90;;;;;;2093503;28;20373;-72
2023/04/27 03:36:42;;;;;;;10.60;8.30;;;4.30;99.90;;;;;;2094031;28;20083;-72
2023/04/27 03:37:44;;;;;;;15.32;8.85;;;4.30;99.90;;;;;;2090834;28;20029;-72
2023/04/27 03:38:45;;;;;;;9.60;6.95;;;4.30;99.90;;;;;;2094927;28;20027;-72
2023/04/27 03:39:46;;;;;;;7.63;6.55;;;4.30;99.90;;;;;;2091370;28;20104;-71
2023/04/27 03:40:46;;;;;;;10.30;6.55;;;4.30;99.90;;;;;;2095294;28;20039;-71
2023/04/27 03:41:47;;;;;;;10.43;7.40;;;4.30;99.90;;;;;;2094314;28;20025;-71
2023/04/27 03:42:47;;;;;;;7.25;6.25;;;4.20;99.90;;;;;;2093144;28;20064;-71
2023/04/27 03:43:49;;;;;;;9.35;7.32;;;4.20;99.90;;;;;;2092629;28;20028;-71
2023/04/27 03:44:50;;;;;;;7.70;6.22;;;4.20;99.90;;;;;;2092761;28;20112;-71
2023/04/27 03:45:51;;;;;;;7.03;6.20;;;4.20;99.90;;;;;;2091786;28;20477;-72
2023/04/27 03:46:52;;;;;;;8.82;7.47;;;4.20;99.90;;;;;;2091989;28;20507;-71
2023/04/27 03:47:52;;;;;;;8.35;6.72;;;4.20;99.90;;;;;;2092470;28;20572;-71
2023/04/27 03:48:53;;;;;;;9.00;6.72;;;4.20;99.90;;;;;;2094373;28;20033;-71
2023/04/27 03:49:53;;;;;;;8.73;7.60;;;4.30;99.90;;;;;;2093042;28;20033;-71
2023/04/27 03:50:54;;;;;;;10.02;6.47;;;4.30;99.90;;;;;;2092461;28;20429;-71
2023/04/27 03:51:54;;;;;;;12.10;7.20;;;4.20;99.90;;;;;;2094252;28;20592;-71
2023/04/27 03:52:55;;;;;;;13.05;8.40;;;4.30;99.90;;;;;;2094326;28;20514;-72
2023/04/27 03:53:55;;;;;;;11.95;7.80;;;4.30;99.90;;;;;;2095126;28;20474;-72
2023/04/27 03:54:56;;;;;;;10.75;8.27;;;4.30;99.90;;;;;;2092744;28;20012;-72
2023/04/27 03:55:56;;;;;;;10.40;7.70;;;4.30;99.90;;;;;;2091958;28;20484;-72
2023/04/27 03:56:57;;;;;;;9.80;6.90;;;4.20;99.90;;;;;;2095183;28;20028;-72
2023/04/27 03:57:58;;;;;;;10.55;7.53;;;4.30;99.90;;;;;;2091325;28;20112;-71
2023/04/27 03:58:58;;;;;;;9.68;7.35;;;4.30;99.90;;;;;;2096097;28;20551;-72
2023/04/27 03:59:59;;;;;;;11.00;7.93;;;4.30;99.90;;;;;;2093749;28;20043;-72
2023/04/27 04:01:00;;;;;;;10.40;8.48;;;4.30;99.90;;;;;;2092057;28;20059;-71
2023/04/27 04:02:02;;;;;;;14.07;8.25;;;4.30;99.90;;;;;;2094798;28;20433;-71
2023/04/27 04:03:03;;;;;;;10.50;8.38;;;4.20;99.90;;;;;;2092490;28;20483;-72
2023/04/27 04:04:04;;;;;;;7.82;6.78;;;4.20;99.90;;;;;;2090737;28;20043;-72
2023/04/27 04:05:05;;;;;;;12.35;8.60;;;4.20;99.90;;;;;;2092212;28;20032;-72
2023/04/27 04:06:05;;;;;;;8.90;7.95;;;4.20;99.90;;;;;;2094187;28;20401;-72
2023/04/27 04:07:06;;;;;;;12.10;8.20;;;4.20;99.90;;;;;;2092456;28;20136;-72
2023/04/27 04:08:06;;;;;;;12.10;8.18;;;4.20;99.90;;;;;;2094492;28;20103;-71
2023/04/27 04:09:07;;;;;;;14.43;9.70;;;4.30;99.90;;;;;;2094437;28;20025;-71
2023/04/27 04:10:08;;;;;;;14.73;9.82;;;4.30;99.90;;;;;;2091391;28;20396;-71
2023/04/27 04:11:09;;;;;;;14.30;10.02;;;4.30;99.90;;;;;;2092162;28;20078;-72
2023/04/27 04:12:09;;;;;;;13.80;9.60;;;4.30;99.90;;;;;;2089956;28;20132;-72
2023/04/27 04:13:10;;;;;;;16.27;9.27;;;4.30;99.90;;;;;;2091536;28;20017;-72
2023/04/27 04:14:10;;;;;;;12.55;10.02;;;4.30;99.90;;;;;;2091954;28;20025;-72
2023/04/27 04:15:11;;;;;;;10.52;8.18;;;4.30;99.90;;;;;;2092061;28;20027;-71
2023/04/27 04:16:12;;;;;;;12.13;9.52;;;4.20;99.90;;;;;;2092389;28;20047;-72
2023/04/27 04:17:13;;;;;;;12.48;9.85;;;4.20;99.90;;;;;;2093307;28;20029;-72
2023/04/27 04:18:13;;;;;;;15.65;9.65;;;4.20;99.90;;;;;;2093742;28;20024;-72
2023/04/27 04:19:14;;;;;;;13.35;8.80;;;4.30;99.90;;;;;;2093837;28;20544;-72
2023/04/27 04:20:15;;;;;;;12.30;9.43;;;4.20;99.90;;;;;;2092290;28;20043;-72
2023/04/27 04:21:15;;;;;;;14.43;9.75;;;4.20;99.90;;;;;;2092459;28;20032;-72
2023/04/27 04:22:16;;;;;;;15.57;10.43;;;4.20;99.90;;;;;;2091360;28;20029;-72
2023/04/27 04:23:16;;;;;;;15.43;9.15;;;4.20;99.90;;;;;;2093060;28;20024;-72
2023/04/27 04:24:17;;;;;;;14.73;10.75;;;4.20;99.90;;;;;;2093660;28;20028;-72
2023/04/27 04:25:19;;;;;;;10.30;9.25;;;4.20;99.90;;;;;;2091828;28;20071;-72
2023/04/27 04:26:22;;;;;;;9.60;8.07;;;4.20;99.90;;;;;;2094542;28;20024;-72
2023/04/27 04:27:23;;;;;;;17.23;10.50;;;4.20;99.90;;;;;;2093481;28;20052;-72
2023/04/27 04:28:24;;;;;;;11.80;10.07;;;4.20;99.90;;;;;;2093799;28;20032;-72
2023/04/27 04:29:24;;;;;;;12.88;10.13;;;4.20;99.90;;;;;;2094995;28;20032;-72
2023/04/27 04:30:26;;;;;;;15.65;9.40;;;4.20;99.90;;;;;;2092408;28;20117;-72
2023/04/27 04:31:26;;;;;;;16.80;9.82;;;4.20;99.90;;;;;;2092433;28;20031;-72
2023/04/27 04:32:28;;;;;;;12.85;9.73;;;4.30;99.90;;;;;;2093443;28;20170;-72
2023/04/27 04:33:30;;;;;;;14.13;9.98;;;4.30;99.90;;;;;;2094071;28;20020;-72
2023/04/27 04:34:30;;;;;;;14.20;9.10;;;4.30;99.90;;;;;;2095420;28;20442;-72
2023/04/27 04:35:34;;;;;;;12.90;8.93;;;4.30;99.90;;;;;;2095134;28;20025;-72
2023/04/27 04:36:35;;;;;;;10.77;9.30;;;4.30;99.90;;;;;;2093611;28;20030;-72
2023/04/27 04:37:36;;;;;;;11.35;8.50;;;4.30;99.90;;;;;;2091960;28;20067;-72
2023/04/27 04:38:37;;;;;;;13.32;9.75;;;4.30;99.90;;;;;;2091869;28;20027;-72
2023/04/27 04:39:37;;;;;;;11.80;8.85;;;4.30;99.90;;;;;;2092680;28;20017;-72
2023/04/27 04:40:38;;;;;;;13.27;9.00;;;4.30;99.90;;;;;;2090786;28;20029;-71
2023/04/27 04:41:39;;;;;;;11.20;9.38;;;4.30;99.90;;;;;;2091789;28;20522;-72
2023/04/27 04:42:40;;;;;;;13.30;9.60;;;4.30;99.90;;;;;;2090304;28;20025;-72
2023/04/27 04:43:41;;;;;;;12.40;10.48;;;4.30;99.90;;;;;;2090105;28;20051;-72
2023/04/27 04:44:41;;;;;;;11.75;9.30;;;4.30;99.90;;;;;;2091940;28;20029;-72
2023/04/27 04:45:42;;;;;;;14.88;10.50;;;4.30;99.90;;;;;;2091034;28;20020;-72
2023/04/27 04:46:43;;;;;;;17.58;10.40;;;4.30;99.90;;;;;;2090301;28;20021;-72
2023/04/27 04:47:43;;;;;;;19.77;11.95;;;4.30;99.90;;;;;;2091592;28;20439;-72
2023/04/27 04:48:44;;;;;;;15.95;11.07;;;4.30;99.90;;;;;;2095097;28;20032;-72
2023/04/27 04:49:44;;;;;;;14.32;11.45;;;4.30;99.90;;;;;;2092536;28;20099;-72
2023/04/27 04:50:45;;;;;;;18.17;12.35;;;4.40;99.90;;;;;;2090936;28;20025;-72
2023/04/27 04:51:46;;;;;;;16.13;11.35;;;4.40;99.90;;;;;;2093030;28;20033;-72
2023/04/27 04:52:46;;;;;;;15.90;11.82;;;4.40;99.90;;;;;;2092148;28;20013;-72
2023/04/27 04:53:47;;;;;;;18.95;12.00;;;4.40;99.90;;;;;;2093105;28;20024;-72
2023/04/27 04:54:51;;;;;;;16.98;12.07;;;4.40;99.90;;;;;;2094075;28;20024;-72
2023/04/27 04:55:51;;;;;;;19.95;12.20;;;4.40;99.90;;;;;;2089673;28;20510;-72
2023/04/27 04:56:52;;;;;;;16.42;11.63;;;4.50;99.90;;;;;;2090505;28;20391;-72
2023/04/27 04:57:53;;;;;;;17.00;11.38;;;4.50;99.90;;;;;;2089475;28;20029;-72
2023/04/27 04:58:53;;;;;;;17.60;11.48;;;4.50;99.90;;;;;;2091872;28;20032;-72
2023/04/27 04:59:54;;;;;;;18.05;12.00;;;4.50;99.90;;;;;;2091975;28;20404;-72
2023/04/27 05:00:54;;;;;;;12.82;10.82;;;4.50;99.90;;;;;;2092311;28;20036;-72
2023/04/27 05:01:55;;;;;;;18.38;12.05;;;4.50;99.90;;;;;;2094262;28;20104;-72
2023/04/27 05:02:55;;;;;;;19.83;12.40;;;4.60;99.90;;;;;;2093656;28;20107;-72
2023/04/27 05:03:56;;;;;;;17.13;11.80;;;4.60;99.90;;;;;;2092671;28;20025;-72
2023/04/27 05:04:57;;;;;;;15.00;10.88;;;4.60;99.90;;;;;;2094234;28;20109;-72
2023/04/27 05:05:57;;;;;;;17.02;11.52;;;4.60;99.90;;;;;;2093960;28;20048;-72
2023/04/27 05:06:58;;;;;;;26.05;12.48;;;4.60;99.90;;;;;;2091297;28;20037;-72
2023/04/27 05:07:59;;;;;;;16.30;11.30;;;4.70;99.90;;;;;;2092091;28;20038;-72
2023/04/27 05:09:00;;;;;;;22.05;12.93;;;4.70;99.90;;;;;;2090718;28;20036;-72
2023/04/27 05:10:00;;;;;;;16.42;11.30;;;4.70;99.90;;;;;;2092609;28;20748;-72
2023/04/27 05:11:01;;;;;;;17.55;11.77;;;4.70;99.90;;;;;;2092379;28;20045;-72
2023/04/27 05:12:02;;;;;;;18.48;11.35;;;4.70;99.90;;;;;;2091230;28;20023;-72
2023/04/27 05:13:02;;;;;;;17.17;11.63;;;4.80;99.90;;;;;;2092277;28;20102;-72
2023/04/27 05:14:03;;;;;;;19.45;11.77;;;4.80;99.90;;;;;;2091721;28;20016;-72
2023/04/27 05:15:04;;;;;;;18.77;11.00;;;4.80;99.90;;;;;;2092470;28;20025;-72
2023/04/27 05:16:05;;;;;;;16.63;10.98;;;4.80;99.90;;;;;;2092799;28;20107;-72
2023/04/27 05:17:05;;;;;;;16.35;11.40;;;4.90;99.90;;;;;;2090234;28;20024;-72
2023/04/27 05:18:06;;;;;;;14.27;10.52;;;4.90;99.90;;;;;;2093843;28;20108;-72
2023/04/27 05:19:07;;;;;;;13.40;11.10;;;4.90;99.90;;;;;;2088808;28;20021;-72